Time;durP1;ratioP1;P1;durP2;ratioP2;P2;SDS_P1;SDS_P2;PMS_P1;PMS_P2;Temp;Humidity;BMP_temperature;BMP_pressure;BME280_temperature;BME280_humidity;BME280_pressure;Samples;Min_cycle;Max_cycle;Signal;HPM_P1;HPM_P2
2020/12/19 00:02:10;;;;;;;197.38;58.97;;;-0.90;99.90;;;;;;5074672;28;20060;-84
2020/12/19 00:04:35;;;;;;;200.77;61.65;;;-1.00;99.90;;;;;;5073227;28;20024;-84
2020/12/19 00:07:01;;;;;;;190.57;58.30;;;-0.90;99.90;;;;;;5073440;28;20458;-85
2020/12/19 00:09:27;;;;;;;199.82;63.92;;;-0.90;99.90;;;;;;5073753;28;20557;-85
2020/12/19 00:11:53;;;;;;;309.13;77.38;;;-0.90;99.90;;;;;;5054749;28;20021;-85
2020/12/19 00:14:20;;;;;;;154.30;56.35;;;-0.90;99.90;;;;;;5067643;28;20096;-85
2020/12/19 00:16:49;;;;;;;168.10;57.47;;;-0.80;99.90;;;;;;5067493;28;20039;-85
2020/12/19 00:19:15;;;;;;;190.57;62.50;;;-0.80;99.90;;;;;;5035264;28;20375;-85
2020/12/19 00:21:41;;;;;;;211.63;64.70;;;-0.80;99.90;;;;;;5033274;28;20075;-85
2020/12/19 00:24:07;;;;;;;180.98;59.65;;;-0.80;99.90;;;;;;5068005;28;20017;-86
2020/12/19 00:26:38;;;;;;;219.35;65.13;;;-0.80;99.90;;;;;;5054097;28;20064;-85
2020/12/19 00:29:09;;;;;;;156.98;55.50;;;-0.80;99.90;;;;;;5054406;28;20049;-85
2020/12/19 00:31:36;;;;;;;199.55;56.40;;;-0.70;99.90;;;;;;5053749;28;20466;-85
2020/12/19 00:34:03;;;;;;;137.02;47.05;;;-0.70;99.90;;;;;;5069782;28;20051;-85
2020/12/19 00:36:29;;;;;;;281.08;63.65;;;-0.70;99.90;;;;;;5069444;28;20021;-85
2020/12/19 00:38:56;;;;;;;159.95;50.35;;;-0.70;99.90;;;;;;5035657;28;20025;-85
2020/12/19 00:41:24;;;;;;;147.88;46.33;;;-0.80;99.90;;;;;;5053409;28;20386;-85
2020/12/19 00:43:50;;;;;;;177.95;51.00;;;-0.80;99.90;;;;;;5069534;28;20017;-85
2020/12/19 00:46:17;;;;;;;154.55;45.22;;;-0.80;99.90;;;;;;5053751;28;20108;-85
2020/12/19 00:48:43;;;;;;;185.38;53.00;;;-0.80;99.90;;;;;;5035931;28;20032;-84
2020/12/19 00:51:13;;;;;;;261.83;59.72;;;-0.80;99.90;;;;;;5054656;28;20387;-84
2020/12/19 00:53:40;;;;;;;184.38;50.65;;;-0.80;99.90;;;;;;5052976;28;20025;-84
2020/12/19 00:56:06;;;;;;;178.55;49.05;;;-0.90;99.90;;;;;;5053173;28;20021;-83
2020/12/19 00:58:32;;;;;;;111.93;42.97;;;-0.80;99.90;;;;;;5035484;28;20029;-84
2020/12/19 01:00:58;;;;;;;151.02;50.83;;;-0.80;99.90;;;;;;5036400;28;20034;-83
2020/12/19 01:03:25;;;;;;;182.80;51.38;;;-0.80;99.90;;;;;;5052775;28;20040;-83
2020/12/19 01:05:51;;;;;;;192.77;53.60;;;-0.90;99.90;;;;;;5054675;28;20029;-83
2020/12/19 01:08:20;;;;;;;169.38;47.58;;;-0.90;99.90;;;;;;5053584;28;20021;-83
2020/12/19 01:10:45;;;;;;;150.82;45.70;;;-1.00;99.90;;;;;;5069812;28;20051;-84
2020/12/19 01:13:11;;;;;;;173.48;52.85;;;-0.90;99.90;;;;;;5071180;28;20017;-83
2020/12/19 01:15:37;;;;;;;170.27;49.90;;;-0.90;99.90;;;;;;5053521;28;20035;-84
2020/12/19 01:18:03;;;;;;;122.68;38.92;;;-1.00;99.90;;;;;;5052864;28;20029;-85
2020/12/19 01:20:29;;;;;;;158.90;45.75;;;-1.00;99.90;;;;;;5053596;28;20021;-83
2020/12/19 01:22:55;;;;;;;193.20;44.92;;;-1.00;99.90;;;;;;5054134;28;20481;-84
2020/12/19 01:25:20;;;;;;;102.68;34.58;;;-1.00;99.90;;;;;;5053388;28;20086;-84
2020/12/19 01:27:46;;;;;;;123.43;36.17;;;-1.00;99.90;;;;;;5053630;28;20032;-84
2020/12/19 01:30:11;;;;;;;177.43;46.72;;;-1.00;99.90;;;;;;5053688;28;20100;-84
2020/12/19 01:32:37;;;;;;;107.63;36.97;;;-0.90;99.90;;;;;;5034489;28;20485;-85
2020/12/19 01:35:03;;;;;;;98.28;36.85;;;-0.90;99.90;;;;;;5034540;28;20031;-84
2020/12/19 01:37:29;;;;;;;88.75;33.70;;;-0.80;99.90;;;;;;5034461;28;20029;-84
2020/12/19 01:39:54;;;;;;;96.72;35.00;;;-0.80;99.90;;;;;;5052466;28;20025;-85
2020/12/19 01:42:20;;;;;;;128.52;38.28;;;-0.70;99.90;;;;;;5052504;28;20088;-85
2020/12/19 01:44:46;;;;;;;101.57;33.88;;;-0.70;99.90;;;;;;5081319;28;20020;-84
2020/12/19 01:47:14;;;;;;;128.35;37.53;;;-0.70;99.90;;;;;;5073524;28;20390;-84
2020/12/19 01:49:39;;;;;;;78.57;29.42;;;-0.70;99.90;;;;;;5071979;28;20029;-84
2020/12/19 01:52:07;;;;;;;117.00;34.08;;;-0.70;99.90;;;;;;5072285;28;20028;-84
2020/12/19 01:54:33;;;;;;;74.35;29.80;;;-0.60;99.90;;;;;;5072989;28;20023;-84
2020/12/19 01:57:00;;;;;;;82.07;29.65;;;-0.60;99.90;;;;;;5073634;28;20085;-85
2020/12/19 01:59:27;;;;;;;88.38;29.60;;;-0.60;99.90;;;;;;5071788;28;20027;-85
2020/12/19 02:02:02;;;;;;;105.82;31.77;;;-0.60;99.90;;;;;;5054879;28;20127;-85
2020/12/19 02:04:28;;;;;;;92.50;31.52;;;-0.60;99.90;;;;;;5073375;28;20024;-84
2020/12/19 02:06:56;;;;;;;95.35;32.28;;;-0.50;99.90;;;;;;5067389;28;20032;-86
2020/12/19 02:09:26;;;;;;;94.50;31.23;;;-0.50;99.90;;;;;;5053193;28;20088;-85
2020/12/19 02:11:52;;;;;;;86.53;29.73;;;-0.50;99.90;;;;;;5053505;28;20093;-84
2020/12/19 02:14:18;;;;;;;71.55;28.02;;;-0.50;99.90;;;;;;5053587;28;20020;-85
2020/12/19 02:17:11;;;;;;;72.72;25.88;;;-0.50;99.90;;;;;;5052387;28;20474;-85
2020/12/19 02:19:37;;;;;;;66.35;24.60;;;-0.40;99.90;;;;;;5068245;28;20171;-84
2020/12/19 02:22:05;;;;;;;94.40;30.40;;;-0.40;99.90;;;;;;5068600;28;20438;-84
2020/12/19 02:24:31;;;;;;;147.50;35.80;;;-0.40;99.90;;;;;;5051744;28;20386;-84
2020/12/19 02:26:58;;;;;;;100.45;28.63;;;-0.40;99.90;;;;;;5051982;28;20029;-84
2020/12/19 02:29:26;;;;;;;93.50;30.08;;;-0.40;99.90;;;;;;5052574;28;20033;-85
2020/12/19 02:31:52;;;;;;;106.63;34.72;;;-0.40;99.90;;;;;;5034157;28;20021;-84
2020/12/19 02:34:18;;;;;;;93.38;29.83;;;-0.30;99.90;;;;;;5067589;28;20374;-85
2020/12/19 02:36:44;;;;;;;96.63;27.48;;;-0.40;99.90;;;;;;5052469;28;20029;-85
2020/12/19 02:39:10;;;;;;;109.63;31.23;;;-0.30;99.90;;;;;;5067079;28;20096;-84
2020/12/19 02:41:41;;;;;;;131.18;33.28;;;-0.30;99.90;;;;;;5079496;28;20063;-85
2020/12/19 02:44:10;;;;;;;91.50;26.38;;;-0.30;99.90;;;;;;5075355;28;20501;-85
2020/12/19 02:46:36;;;;;;;93.18;28.13;;;-0.30;99.90;;;;;;5057217;28;20028;-85
2020/12/19 02:49:03;;;;;;;93.88;31.20;;;-0.30;99.90;;;;;;5076106;28;20028;-85
2020/12/19 02:51:29;;;;;;;141.65;35.28;;;-0.30;99.90;;;;;;5075259;28;20043;-85
2020/12/19 02:53:57;;;;;;;76.53;24.45;;;-0.30;99.90;;;;;;5058384;28;20470;-85
2020/12/19 02:56:23;;;;;;;116.38;30.17;;;-0.30;99.90;;;;;;5057125;28;20029;-85
2020/12/19 02:58:49;;;;;;;115.68;33.70;;;-0.30;99.90;;;;;;5076016;28;20032;-85
2020/12/19 03:01:15;;;;;;;107.88;30.08;;;-0.30;99.90;;;;;;5077597;28;20107;-85
2020/12/19 03:03:40;;;;;;;96.75;28.58;;;-0.20;99.90;;;;;;5076034;28;20032;-85
2020/12/19 03:06:06;;;;;;;94.70;27.80;;;-0.20;99.90;;;;;;5057088;28;20025;-85
2020/12/19 03:08:32;;;;;;;83.85;24.67;;;-0.20;99.90;;;;;;5057930;28;20481;-85
2020/12/19 03:10:58;;;;;;;108.47;28.05;;;-0.20;99.90;;;;;;5051905;28;20131;-85
2020/12/19 03:13:24;;;;;;;170.65;36.50;;;-0.20;99.90;;;;;;5056635;28;20028;-84
2020/12/19 03:15:49;;;;;;;115.55;29.00;;;-0.30;99.90;;;;;;5055159;28;20032;-84
2020/12/19 03:18:15;;;;;;;96.10;30.30;;;-0.30;99.90;;;;;;5069027;28;20017;-84
2020/12/19 03:20:41;;;;;;;109.03;26.90;;;-0.30;99.90;;;;;;5037196;28;20032;-85
2020/12/19 03:23:07;;;;;;;162.38;34.28;;;-0.30;99.90;;;;;;5054036;28;20052;-84
2020/12/19 03:25:32;;;;;;;143.18;31.05;;;-0.30;99.90;;;;;;5053642;28;20014;-84
2020/12/19 03:27:58;;;;;;;99.65;28.20;;;-0.30;99.90;;;;;;5054439;28;20429;-84
2020/12/19 03:30:24;;;;;;;117.25;30.17;;;-0.30;99.90;;;;;;5054442;28;20032;-85
2020/12/19 03:32:54;;;;;;;127.68;30.35;;;-0.30;99.90;;;;;;5036733;28;20386;-85
2020/12/19 03:35:21;;;;;;;113.22;28.45;;;-0.30;99.90;;;;;;5054404;28;20075;-85
2020/12/19 03:37:47;;;;;;;54.75;23.42;;;-0.30;99.90;;;;;;5036341;28;20119;-85
2020/12/19 03:40:13;;;;;;;109.72;29.00;;;-0.20;99.90;;;;;;5055856;28;20064;-85
2020/12/19 03:42:39;;;;;;;95.63;28.27;;;-0.20;99.90;;;;;;5074722;28;20064;-85
2020/12/19 03:45:06;;;;;;;111.70;27.38;;;-0.20;99.90;;;;;;5074115;28;20029;-85
2020/12/19 03:47:32;;;;;;;103.40;28.67;;;-0.20;99.90;;;;;;5075119;28;20535;-84
2020/12/19 03:49:59;;;;;;;114.32;25.40;;;-0.20;99.90;;;;;;5074650;28;20021;-84
2020/12/19 03:52:24;;;;;;;115.10;29.52;;;-0.30;99.90;;;;;;5056024;28;20017;-85
2020/12/19 03:54:50;;;;;;;101.15;27.00;;;-0.30;99.90;;;;;;5074116;28;20031;-85
2020/12/19 03:57:16;;;;;;;127.60;25.27;;;-0.20;99.90;;;;;;5074723;28;20082;-85
2020/12/19 03:59:42;;;;;;;91.75;23.25;;;-0.30;99.90;;;;;;5073881;28;20032;-85
2020/12/19 04:02:07;;;;;;;112.80;26.65;;;-0.30;99.90;;;;;;5056246;28;20037;-84
2020/12/19 04:04:33;;;;;;;90.38;24.17;;;-0.30;99.90;;;;;;5074233;28;20096;-84
2020/12/19 04:07:00;;;;;;;96.05;26.15;;;-0.30;99.90;;;;;;5074044;28;20074;-83
2020/12/19 04:09:26;;;;;;;96.70;23.15;;;-0.30;99.90;;;;;;5062490;28;20025;-85
2020/12/19 04:11:51;;;;;;;100.95;24.48;;;-0.30;99.90;;;;;;5036576;28;20132;-84
2020/12/19 04:14:17;;;;;;;127.90;25.63;;;-0.30;99.90;;;;;;5053675;28;20033;-85
2020/12/19 04:16:46;;;;;;;118.05;26.83;;;-0.30;99.90;;;;;;5054419;28;20376;-84
2020/12/19 04:19:12;;;;;;;136.38;25.88;;;-0.30;99.90;;;;;;5054070;28;20040;-84
2020/12/19 04:21:38;;;;;;;79.25;21.10;;;-0.30;99.90;;;;;;5053485;28;20494;-85
2020/12/19 04:24:04;;;;;;;85.07;25.13;;;-0.30;99.90;;;;;;5055678;28;20040;-84
2020/12/19 04:26:29;;;;;;;60.33;22.63;;;-0.30;99.90;;;;;;5053410;28;20104;-84
2020/12/19 04:28:55;;;;;;;120.22;32.05;;;-0.30;99.90;;;;;;5053538;28;20485;-85
2020/12/19 04:31:21;;;;;;;143.68;31.98;;;-0.20;99.90;;;;;;5035635;28;20044;-84
2020/12/19 04:33:46;;;;;;;108.25;23.98;;;-0.20;99.90;;;;;;5053375;28;20017;-84
2020/12/19 04:36:12;;;;;;;110.90;23.13;;;-0.30;99.90;;;;;;5053695;28;20422;-84
2020/12/19 04:38:38;;;;;;;141.10;27.77;;;-0.30;99.90;;;;;;5056954;28;20012;-84
2020/12/19 04:41:04;;;;;;;163.30;32.42;;;-0.40;99.90;;;;;;5073370;28;20039;-84
2020/12/19 04:43:30;;;;;;;160.27;39.65;;;-0.40;99.90;;;;;;5073245;28;20474;-84
2020/12/19 04:45:55;;;;;;;110.85;27.00;;;-0.40;99.90;;;;;;5073706;28;20028;-85
2020/12/19 04:48:24;;;;;;;187.73;39.95;;;-0.40;99.90;;;;;;5072760;28;20501;-84
2020/12/19 04:50:50;;;;;;;162.02;38.53;;;-0.40;99.90;;;;;;5073743;28;20026;-84
2020/12/19 04:53:18;;;;;;;117.97;26.65;;;-0.40;99.90;;;;;;5073324;28;20025;-84
2020/12/19 04:55:45;;;;;;;106.20;24.65;;;-0.50;99.90;;;;;;5073568;28;20493;-84
2020/12/19 04:58:16;;;;;;;134.68;28.08;;;-0.40;99.90;;;;;;5055107;28;20025;-85
2020/12/19 05:00:42;;;;;;;140.23;31.30;;;-0.40;99.90;;;;;;5060583;28;20087;-85
2020/12/19 05:03:09;;;;;;;87.63;21.52;;;-0.40;99.90;;;;;;5054044;28;20025;-85
2020/12/19 05:05:40;;;;;;;136.95;28.80;;;-0.50;99.90;;;;;;5034531;28;20021;-84
2020/12/19 05:08:06;;;;;;;149.40;29.73;;;-0.50;99.90;;;;;;5053285;28;20486;-85
2020/12/19 05:10:31;;;;;;;113.50;23.92;;;-0.50;99.90;;;;;;5053083;28;20029;-85
2020/12/19 05:12:57;;;;;;;107.43;23.80;;;-0.50;99.90;;;;;;5052559;28;20021;-86
2020/12/19 05:15:23;;;;;;;133.82;29.65;;;-0.40;99.90;;;;;;5053065;28;20367;-85
2020/12/19 05:17:56;;;;;;;133.70;23.92;;;-0.40;99.90;;;;;;5069805;28;20108;-85
2020/12/19 05:20:24;;;;;;;109.13;26.00;;;-0.40;99.90;;;;;;5035291;28;20048;-83
2020/12/19 05:22:53;;;;;;;162.75;26.88;;;-0.40;99.90;;;;;;5052558;28;20041;-82
2020/12/19 05:25:21;;;;;;;146.48;30.70;;;-0.40;99.90;;;;;;5052702;28;20017;-83
2020/12/19 05:27:48;;;;;;;121.82;26.08;;;-0.40;99.90;;;;;;5052326;28;20017;-83
2020/12/19 05:30:15;;;;;;;96.65;23.70;;;-0.40;99.90;;;;;;5060565;28;20040;-83
2020/12/19 05:32:49;;;;;;;54.05;18.52;;;-0.40;99.90;;;;;;5071977;28;20033;-84
2020/12/19 05:35:19;;;;;;;103.57;25.23;;;-0.30;99.90;;;;;;5072946;28;20028;-84
2020/12/19 05:38:05;;;;;;;107.93;25.60;;;-0.30;99.90;;;;;;5072445;28;20474;-83
2020/12/19 05:40:32;;;;;;;100.50;23.05;;;-0.30;99.90;;;;;;5054208;28;20073;-82
2020/12/19 05:42:58;;;;;;;60.08;22.27;;;-0.30;99.90;;;;;;5072017;28;20466;-84
2020/12/19 05:45:25;;;;;;;95.68;24.40;;;-0.20;99.90;;;;;;5072234;28;20054;-83
2020/12/19 05:47:51;;;;;;;147.13;27.42;;;-0.20;99.90;;;;;;5072383;28;20045;-81
2020/12/19 05:50:18;;;;;;;79.45;25.50;;;-0.20;99.90;;;;;;5054351;28;20017;-84
2020/12/19 05:52:44;;;;;;;159.63;32.25;;;-0.10;99.90;;;;;;5072270;28;20028;-84
2020/12/19 05:55:17;;;;;;;143.38;29.92;;;-0.20;99.90;;;;;;5072100;28;20396;-84
2020/12/19 05:57:44;;;;;;;70.13;24.02;;;-0.10;99.90;;;;;;5072178;28;20078;-84
2020/12/19 06:00:13;;;;;;;117.07;24.65;;;-0.10;99.90;;;;;;5064180;28;20429;-85
2020/12/19 06:02:39;;;;;;;116.18;24.75;;;-0.10;99.90;;;;;;5051976;28;20445;-85
2020/12/19 06:05:09;;;;;;;87.45;22.98;;;-0.20;99.90;;;;;;5071644;28;20025;-84
2020/12/19 06:07:39;;;;;;;95.55;24.20;;;-0.20;99.90;;;;;;5051970;28;20029;-81
2020/12/19 06:10:10;;;;;;;155.48;35.05;;;-0.30;99.90;;;;;;5052132;28;20025;-83
2020/12/19 06:12:45;;;;;;;85.75;25.90;;;-0.30;99.90;;;;;;5033731;28;20501;-82
2020/12/19 06:15:22;;;;;;;104.18;25.98;;;-0.30;99.90;;;;;;5034242;28;20033;-81
2020/12/19 06:17:53;;;;;;;210.98;53.33;;;-0.30;99.90;;;;;;5055671;28;20029;-81
2020/12/19 06:20:20;;;;;;;451.42;123.20;;;-0.30;99.90;;;;;;5055367;28;20028;-81
2020/12/19 06:22:46;;;;;;;382.02;92.70;;;-0.30;99.90;;;;;;5055628;28;20112;-82
2020/12/19 06:25:11;;;;;;;743.70;241.90;;;-0.30;99.90;;;;;;5055667;28;20028;-83
2020/12/19 06:27:39;;;;;;;296.48;74.05;;;-0.40;99.90;;;;;;5055464;28;20029;-81
2020/12/19 06:30:05;;;;;;;679.03;208.73;;;-0.40;99.90;;;;;;5037963;28;20084;-85
2020/12/19 06:32:31;;;;;;;128.48;32.50;;;-0.50;99.90;;;;;;5037029;28;20051;-84
2020/12/19 06:35:03;;;;;;;52.70;20.50;;;-0.40;99.90;;;;;;5055809;28;20454;-85
2020/12/19 06:37:31;;;;;;;66.78;20.08;;;-0.40;99.90;;;;;;5037817;28;20025;-84
2020/12/19 06:40:23;;;;;;;55.83;18.15;;;-0.40;99.90;;;;;;5071277;28;20108;-85
2020/12/19 06:43:15;;;;;;;55.95;17.55;;;-0.40;99.90;;;;;;5052029;28;20045;-84
2020/12/19 06:45:41;;;;;;;50.83;17.88;;;-0.30;99.90;;;;;;5034182;28;20025;-84
2020/12/19 06:48:33;;;;;;;104.82;23.67;;;-0.30;99.90;;;;;;5052932;28;20024;-84
2020/12/19 06:51:04;;;;;;;95.80;21.80;;;-0.30;99.90;;;;;;5069327;28;20021;-85
2020/12/19 06:53:31;;;;;;;94.32;20.08;;;-0.30;99.90;;;;;;5054630;28;20019;-85
2020/12/19 06:56:20;;;;;;;99.22;22.73;;;-0.30;99.90;;;;;;5072366;28;20024;-84
2020/12/19 06:59:00;;;;;;;77.13;19.95;;;-0.30;99.90;;;;;;5053189;28;20027;-85
2020/12/19 07:01:28;;;;;;;83.85;26.20;;;-0.30;99.90;;;;;;5071050;28;20032;-84
2020/12/19 07:03:54;;;;;;;94.88;22.85;;;-0.30;99.90;;;;;;5053695;28;20047;-86
2020/12/19 07:06:20;;;;;;;80.10;19.08;;;-0.30;99.90;;;;;;5050583;28;20032;-86
2020/12/19 07:08:46;;;;;;;60.95;19.52;;;-0.30;99.90;;;;;;5076389;28;20013;-85
2020/12/19 07:11:31;;;;;;;58.58;16.77;;;-0.20;99.90;;;;;;5075351;28;20032;-85
2020/12/19 07:13:57;;;;;;;72.13;19.95;;;-0.30;99.90;;;;;;5080840;28;20020;-86
2020/12/19 07:16:51;;;;;;;46.38;18.13;;;-0.20;99.90;;;;;;5072862;28;20070;-85
2020/12/19 07:19:28;;;;;;;79.57;21.83;;;-0.20;99.90;;;;;;5069006;28;20377;-85
2020/12/19 07:21:58;;;;;;;104.05;23.65;;;-0.20;99.90;;;;;;5055393;28;20048;-86
2020/12/19 07:24:24;;;;;;;120.22;34.90;;;-0.20;99.90;;;;;;5054138;28;20649;-84
2020/12/19 07:26:51;;;;;;;109.72;43.40;;;-0.20;99.90;;;;;;5071954;28;20509;-86
2020/12/19 07:29:18;;;;;;;112.32;41.75;;;-0.20;99.90;;;;;;5071851;28;20055;-85
2020/12/19 07:31:51;;;;;;;80.03;30.42;;;-0.20;99.90;;;;;;5058257;28;20032;-84
2020/12/19 07:34:17;;;;;;;89.85;24.83;;;-0.10;99.90;;;;;;5052024;28;20023;-83
2020/12/19 07:36:46;;;;;;;79.85;23.63;;;-0.10;99.90;;;;;;5050810;28;20032;-83
2020/12/19 07:39:13;;;;;;;91.82;26.60;;;-0.10;99.90;;;;;;5066239;28;20055;-84
2020/12/19 07:41:40;;;;;;;72.95;22.58;;;0.00;99.90;;;;;;5068959;28;20072;-83
2020/12/19 07:44:14;;;;;;;75.03;21.58;;;0.00;99.90;;;;;;5069292;28;20508;-85
2020/12/19 07:46:52;;;;;;;84.82;24.25;;;0.00;99.90;;;;;;5052314;28;20020;-84
2020/12/19 07:49:27;;;;;;;64.20;20.05;;;0.10;99.90;;;;;;5069841;28;20098;-84
2020/12/19 07:52:08;;;;;;;123.28;30.63;;;0.10;99.90;;;;;;5070442;28;20396;-84
2020/12/19 07:54:35;;;;;;;98.05;33.70;;;0.00;99.90;;;;;;5067130;28;20062;-84
2020/12/19 07:57:01;;;;;;;82.97;30.55;;;0.00;99.90;;;;;;5071209;28;20032;-85
2020/12/19 07:59:27;;;;;;;75.00;25.42;;;0.00;99.90;;;;;;5072185;28;20097;-86
2020/12/19 08:01:54;;;;;;;89.10;28.48;;;0.00;99.90;;;;;;5071552;28;20060;-86
2020/12/19 08:04:20;;;;;;;373.13;90.88;;;0.10;99.90;;;;;;5067264;28;20024;-86
2020/12/19 08:06:47;;;;;;;245.50;67.72;;;0.00;99.90;;;;;;5069011;28;20112;-85
2020/12/19 08:09:20;;;;;;;213.02;60.90;;;0.10;99.90;;;;;;5068351;28;20385;-86
2020/12/19 08:11:48;;;;;;;90.60;37.17;;;0.10;99.90;;;;;;5068569;28;20028;-86
2020/12/19 08:14:19;;;;;;;98.78;25.10;;;0.10;99.90;;;;;;5050837;28;20386;-87
2020/12/19 08:16:45;;;;;;;65.95;21.08;;;0.10;99.90;;;;;;5071363;28;20028;-86
2020/12/19 08:19:17;;;;;;;107.40;35.92;;;0.10;99.90;;;;;;5042624;28;20028;-85
2020/12/19 08:21:47;;;;;;;122.25;32.53;;;0.10;99.90;;;;;;5049378;28;20500;-85
2020/12/19 08:24:15;;;;;;;61.40;20.35;;;0.10;99.90;;;;;;5069503;28;20102;-86
2020/12/19 08:26:41;;;;;;;106.22;26.20;;;0.20;99.90;;;;;;5052257;28;20063;-85
2020/12/19 08:29:08;;;;;;;47.22;18.25;;;0.20;99.90;;;;;;5072171;28;20020;-85
2020/12/19 08:31:37;;;;;;;91.60;19.33;;;0.20;99.90;;;;;;5072103;28;20016;-86
2020/12/19 08:34:09;;;;;;;110.28;22.63;;;0.20;99.90;;;;;;5054450;28;20029;-86
2020/12/19 08:36:46;;;;;;;39.57;16.70;;;0.20;99.90;;;;;;5068991;28;20066;-86
2020/12/19 08:39:17;;;;;;;55.92;18.02;;;0.10;99.90;;;;;;5041075;28;20029;-85
2020/12/19 08:41:44;;;;;;;50.05;18.45;;;0.20;99.90;;;;;;5052604;28;20114;-86
2020/12/19 08:44:26;;;;;;;50.78;18.25;;;0.20;99.90;;;;;;5059195;28;20025;-86
2020/12/19 08:47:05;;;;;;;56.67;20.30;;;0.30;99.90;;;;;;5055027;28;20060;-86
2020/12/19 08:49:31;;;;;;;67.80;20.52;;;0.30;99.90;;;;;;5073113;28;20035;-86
2020/12/19 08:51:57;;;;;;;64.72;22.73;;;0.30;99.90;;;;;;5054679;28;20046;-86
2020/12/19 08:54:24;;;;;;;71.07;20.30;;;0.30;99.90;;;;;;5055748;28;20187;-86
2020/12/19 08:56:52;;;;;;;81.05;23.52;;;0.30;99.90;;;;;;5072538;28;20028;-86
2020/12/19 08:59:26;;;;;;;71.03;18.75;;;0.30;99.90;;;;;;5072865;28;20012;-86
2020/12/19 09:01:54;;;;;;;75.50;20.60;;;0.40;99.90;;;;;;5072617;28;20374;-87
2020/12/19 09:04:20;;;;;;;77.63;22.60;;;0.40;99.90;;;;;;5052584;28;20020;-87
2020/12/19 09:06:53;;;;;;;64.53;22.40;;;0.50;99.90;;;;;;5051466;28;20512;-87
2020/12/19 09:09:29;;;;;;;80.25;22.25;;;0.50;99.90;;;;;;5072847;28;20474;-87
2020/12/19 09:12:08;;;;;;;49.00;17.55;;;0.50;99.90;;;;;;5072817;28;20033;-87
2020/12/19 09:14:34;;;;;;;58.42;17.83;;;0.60;99.90;;;;;;5073122;28;20040;-87
2020/12/19 09:17:00;;;;;;;53.38;16.85;;;0.60;99.90;;;;;;5054792;28;20150;-87
2020/12/19 09:19:26;;;;;;;72.55;20.02;;;0.60;99.90;;;;;;5074325;28;20028;-87
2020/12/19 09:21:59;;;;;;;46.00;17.48;;;0.60;99.90;;;;;;5070908;28;20090;-87
2020/12/19 09:24:26;;;;;;;55.78;18.60;;;0.60;99.90;;;;;;5072154;28;20020;-87
2020/12/19 09:26:52;;;;;;;85.63;30.38;;;0.70;99.90;;;;;;5054581;28;20436;-86
2020/12/19 09:29:18;;;;;;;83.53;23.20;;;0.70;99.90;;;;;;5071625;28;20047;-87
2020/12/19 09:31:44;;;;;;;80.05;21.55;;;0.70;99.90;;;;;;5070781;28;20477;-87
2020/12/19 09:34:11;;;;;;;75.10;19.90;;;0.70;99.90;;;;;;5073152;28;20051;-86
2020/12/19 09:36:37;;;;;;;72.40;20.98;;;0.70;99.90;;;;;;5071761;28;20099;-87
2020/12/19 09:39:05;;;;;;;53.85;16.55;;;0.70;99.90;;;;;;5072179;28;20024;-88
2020/12/19 09:41:31;;;;;;;115.30;23.77;;;0.80;99.90;;;;;;5071729;28;20039;-87
2020/12/19 09:43:56;;;;;;;74.80;20.10;;;0.80;99.90;;;;;;5056236;28;20024;-87
2020/12/19 09:46:22;;;;;;;61.30;17.63;;;0.80;99.90;;;;;;5072468;28;20382;-87
2020/12/19 09:48:48;;;;;;;93.82;22.40;;;0.90;99.90;;;;;;5054084;28;20023;-88
2020/12/19 09:51:14;;;;;;;70.00;19.35;;;0.90;99.90;;;;;;5073284;28;20539;-87
2020/12/19 09:53:39;;;;;;;69.13;22.63;;;1.00;99.90;;;;;;5076686;28;20021;-88
2020/12/19 09:56:05;;;;;;;67.07;19.52;;;1.00;99.90;;;;;;5076196;28;20381;-89
2020/12/19 09:58:31;;;;;;;68.70;19.13;;;1.00;99.90;;;;;;5076307;28;20024;-88
2020/12/19 10:00:57;;;;;;;74.38;20.85;;;1.10;99.90;;;;;;5076272;28;20044;-88
2020/12/19 10:03:23;;;;;;;58.58;18.95;;;1.10;99.90;;;;;;5076290;28;20107;-88
2020/12/19 10:05:49;;;;;;;63.95;21.92;;;1.10;99.90;;;;;;5058280;28;20023;-88
2020/12/19 10:08:15;;;;;;;62.83;21.35;;;1.20;99.90;;;;;;5058725;28;20048;-88
2020/12/19 10:10:44;;;;;;;61.22;19.00;;;1.20;99.90;;;;;;5075996;28;20070;-85
2020/12/19 10:13:13;;;;;;;71.82;23.45;;;1.20;99.90;;;;;;5053634;28;20405;-86
2020/12/19 10:15:40;;;;;;;98.90;32.97;;;1.30;99.90;;;;;;5075963;28;20080;-86
2020/12/19 10:18:06;;;;;;;68.05;22.70;;;1.30;99.90;;;;;;5076031;28;20045;-85
2020/12/19 10:20:34;;;;;;;90.82;23.30;;;1.30;99.90;;;;;;5057250;28;20375;-85
2020/12/19 10:22:59;;;;;;;67.07;21.80;;;1.30;99.90;;;;;;5074628;28;20043;-86
2020/12/19 10:25:25;;;;;;;83.32;22.13;;;1.30;99.90;;;;;;5056545;28;20429;-86
2020/12/19 10:27:51;;;;;;;77.13;23.92;;;1.40;99.90;;;;;;5056940;28;20016;-86
2020/12/19 10:30:17;;;;;;;77.30;20.25;;;1.40;99.90;;;;;;5077367;28;20517;-86
2020/12/19 10:32:42;;;;;;;63.50;17.55;;;1.40;99.90;;;;;;5075206;28;20389;-85
2020/12/19 10:35:08;;;;;;;71.45;21.10;;;1.50;99.90;;;;;;5074974;28;20055;-86
2020/12/19 10:37:35;;;;;;;71.13;21.45;;;1.50;99.90;;;;;;5075076;28;20103;-85
2020/12/19 10:40:01;;;;;;;66.53;18.85;;;1.50;99.90;;;;;;5056924;28;20115;-86
2020/12/19 10:42:26;;;;;;;82.82;23.00;;;1.60;99.90;;;;;;5060832;28;20032;-86
2020/12/19 10:44:53;;;;;;;76.65;21.38;;;1.60;99.90;;;;;;5057825;28;20025;-85
2020/12/19 10:47:18;;;;;;;129.13;48.85;;;1.60;99.90;;;;;;5077061;28;20032;-86
2020/12/19 10:49:44;;;;;;;79.65;24.30;;;1.60;99.90;;;;;;5075112;28;20386;-86
2020/12/19 10:52:10;;;;;;;80.97;33.15;;;1.60;99.90;;;;;;5074619;28;20020;-86
2020/12/19 10:54:35;;;;;;;84.40;35.42;;;1.50;99.90;;;;;;5075908;28;20029;-86
2020/12/19 10:57:02;;;;;;;61.97;24.38;;;1.60;99.90;;;;;;5074386;28;20032;-85
2020/12/19 10:59:29;;;;;;;78.80;21.50;;;1.70;99.90;;;;;;5056735;28;20013;-83
2020/12/19 11:01:55;;;;;;;63.55;21.60;;;1.70;99.90;;;;;;5074146;28;20089;-85
2020/12/19 11:04:21;;;;;;;119.75;52.22;;;1.70;99.90;;;;;;5054982;28;20086;-83
2020/12/19 11:06:48;;;;;;;143.50;55.85;;;1.70;99.90;;;;;;5056329;28;20029;-82
2020/12/19 11:09:13;;;;;;;91.75;30.75;;;1.60;99.90;;;;;;5056233;28;20021;-83
2020/12/19 11:11:40;;;;;;;97.65;43.03;;;1.70;99.90;;;;;;5074169;28;20032;-83
2020/12/19 11:14:08;;;;;;;64.07;27.13;;;1.70;99.90;;;;;;5073650;28;20025;-83
2020/12/19 11:16:36;;;;;;;78.18;26.38;;;1.70;99.90;;;;;;5056090;28;20034;-84
2020/12/19 11:19:01;;;;;;;71.97;25.33;;;1.70;99.90;;;;;;5056164;28;20025;-84
2020/12/19 11:21:27;;;;;;;58.05;22.55;;;1.70;99.90;;;;;;5073846;28;20098;-84
2020/12/19 11:23:53;;;;;;;59.30;20.63;;;1.70;99.90;;;;;;5056204;28;20504;-85
2020/12/19 11:26:22;;;;;;;122.57;36.08;;;1.70;99.90;;;;;;5056307;28;20473;-85
2020/12/19 11:28:50;;;;;;;63.08;21.38;;;1.70;99.90;;;;;;5055442;28;20465;-85
2020/12/19 11:31:23;;;;;;;65.47;23.13;;;1.80;99.90;;;;;;5073935;28;20037;-85
2020/12/19 11:33:49;;;;;;;69.30;26.67;;;1.90;99.90;;;;;;5056253;28;20020;-84
2020/12/19 11:36:15;;;;;;;62.75;23.33;;;1.80;99.90;;;;;;5054120;28;20482;-84
2020/12/19 11:38:40;;;;;;;68.90;25.17;;;1.90;99.90;;;;;;5070409;28;20032;-83
2020/12/19 11:41:06;;;;;;;74.57;27.75;;;1.90;99.90;;;;;;5054525;28;20040;-85
2020/12/19 11:43:32;;;;;;;58.20;21.02;;;2.00;99.90;;;;;;5073533;28;20412;-84
2020/12/19 11:45:58;;;;;;;63.45;22.45;;;2.00;99.90;;;;;;5073763;28;20024;-85
2020/12/19 11:48:23;;;;;;;57.55;22.35;;;2.00;99.90;;;;;;5073248;28;20078;-85
2020/12/19 11:50:49;;;;;;;52.65;21.77;;;2.10;99.90;;;;;;5073534;28;20500;-84
2020/12/19 11:53:15;;;;;;;57.97;22.60;;;2.10;99.90;;;;;;5072919;28;20028;-84
2020/12/19 11:55:40;;;;;;;55.67;19.95;;;2.20;99.90;;;;;;5055251;28;20127;-84
2020/12/19 11:58:06;;;;;;;59.60;20.55;;;2.10;99.90;;;;;;5055149;28;20025;-87
2020/12/19 12:00:32;;;;;;;61.45;26.10;;;2.20;99.90;;;;;;5054876;28;20039;-84
2020/12/19 12:02:57;;;;;;;95.25;42.05;;;2.20;99.90;;;;;;5072630;28;20040;-84
2020/12/19 12:05:23;;;;;;;63.40;29.92;;;2.20;99.90;;;;;;5073837;28;20028;-85
2020/12/19 12:07:49;;;;;;;61.50;24.20;;;2.20;99.90;;;;;;5073851;28;20085;-85
2020/12/19 12:10:15;;;;;;;68.72;26.95;;;2.20;99.90;;;;;;5073863;28;20017;-85
2020/12/19 12:12:40;;;;;;;93.03;30.77;;;2.20;99.90;;;;;;5072436;28;20075;-84
2020/12/19 12:15:06;;;;;;;107.90;36.78;;;2.20;99.90;;;;;;5071317;28;20483;-87
2020/12/19 12:17:32;;;;;;;95.65;35.92;;;2.20;99.90;;;;;;5072947;28;20024;-85
2020/12/19 12:19:57;;;;;;;75.05;27.55;;;2.20;99.90;;;;;;5074173;28;20399;-85
2020/12/19 12:22:23;;;;;;;75.10;27.05;;;2.20;99.90;;;;;;5071258;28;20125;-85
2020/12/19 12:24:49;;;;;;;58.28;22.27;;;2.20;99.90;;;;;;5073369;28;20021;-85
2020/12/19 12:27:14;;;;;;;179.05;53.33;;;2.10;99.90;;;;;;5073662;28;20024;-86
2020/12/19 12:29:40;;;;;;;92.80;33.40;;;2.10;99.90;;;;;;5072283;28;20024;-86